Cayo Largo del Sur, Cuba
Current Conditions -  °F | °C
As of 7:54 PM on Tuesday 25 Nov 2014 (Local Time) from MUCL Reporting Station
Scattered Clouds Scattered Clouds  
Wind Chill: 82°   Ceiling: Unl
Heat Index: 89°   Visibility: 6mi
Dew Point: 75°   Wind: 9mph
Humidity: 79%   Direction: 150°SSE
Pressure: 29.91"   Gusts: NA
Location:  21.63°N, 81.47°W
Report Text: MUCL 252354Z 15008KT 9000 FEW018 SCT200 28/24 Q1013
Loading
Personal Weather Stations






























Interactive Weather Map New forecast layout! Learn more

10-Day Weather Forecast

Advertisements
Track Severe Weather on mobile